Time,TemperatureF,DewpointF,PressureIn,WindDirection,WindDirectionDegrees,WindSpeedMPH,WindSpeedGustMPH,Humidity,HourlyPrecipIn,Conditions,Clouds,dailyrainin,SoftwareType,DateUTC
2013-01-22 00:00:00,54.0,30.2,26.89,North,360,0.0,0.0,40,0.00,,,0.00,Weather View 32 v70,2013-01-22 07:00:00,
2013-01-22 00:07:00,54.0,30.2,26.89,North,360,0.0,0.0,40,0.00,,,0.00,Weather View 32 v70,2013-01-22 07:07:00,
2013-01-22 00:20:00,53.0,29.9,26.89,NNE,22,0.0,0.0,41,0.00,,,0.00,Weather View 32 v70,2013-01-22 07:20:00,
2013-01-22 00:30:00,53.0,31.1,26.90,NNE,22,0.0,0.0,43,0.00,,,0.00,Weather View 32 v70,2013-01-22 07:30:00,
2013-01-22 00:40:00,53.0,31.6,26.90,North,360,3.0,3.0,44,0.00,,,0.00,Weather View 32 v70,2013-01-22 07:40:00,
2013-01-22 00:50:00,53.0,31.6,26.90,NNE,22,0.0,6.0,44,0.00,,,0.00,Weather View 32 v70,2013-01-22 07:50:00,
2013-01-22 01:00:00,53.0,32.2,26.90,NNE,22,0.0,6.0,45,0.00,,,0.00,Weather View 32 v70,2013-01-22 08:00:00,
2013-01-22 01:08:00,53.0,32.2,26.90,NNE,22,0.0,6.0,45,0.00,,,0.00,Weather View 32 v70,2013-01-22 08:08:00,
2013-01-22 01:20:00,53.0,31.6,26.90,North,360,0.0,6.0,44,0.00,,,0.00,Weather View 32 v70,2013-01-22 08:20:00,
2013-01-22 01:30:00,53.0,31.1,26.90,NE,45,0.0,6.0,43,0.00,,,0.00,Weather View 32 v70,2013-01-22 08:30:00,
2013-01-22 01:40:00,52.0,31.8,26.91,NNW,337,3.0,6.0,46,0.00,,,0.00,Weather View 32 v70,2013-01-22 08:40:00,
2013-01-22 01:50:00,52.0,32.4,26.91,NNW,337,0.0,6.0,47,0.00,,,0.00,Weather View 32 v70,2013-01-22 08:50:00,
2013-01-22 02:00:00,52.0,31.8,26.91,NNE,22,0.0,6.0,46,0.00,,,0.00,Weather View 32 v70,2013-01-22 09:00:00,
2013-01-22 02:08:00,52.0,31.8,26.91,NNE,22,0.0,6.0,46,0.00,,,0.00,Weather View 32 v70,2013-01-22 09:08:00,
2013-01-22 02:20:00,52.0,31.8,26.91,NNW,337,0.0,5.0,46,0.00,,,0.00,Weather View 32 v70,2013-01-22 09:20:00,
2013-01-22 02:30:00,52.0,31.8,26.92,East,90,0.0,5.0,46,0.00,,,0.00,Weather View 32 v70,2013-01-22 09:30:00,
2013-01-22 02:40:00,52.0,31.3,26.92,East,90,0.0,5.0,45,0.00,,,0.00,Weather View 32 v70,2013-01-22 09:40:00,
2013-01-22 02:50:00,52.0,31.8,26.92,North,360,0.0,5.0,46,0.00,,,0.00,Weather View 32 v70,2013-01-22 09:50:00,
2013-01-22 03:00:00,51.0,30.4,26.93,ENE,67,0.0,5.0,45,0.00,,,0.00,Weather View 32 v70,2013-01-22 10:00:00,
2013-01-22 03:09:00,51.0,30.4,26.93,ENE,67,0.0,5.0,45,0.00,,,0.00,Weather View 32 v70,2013-01-22 10:09:00,
2013-01-22 03:20:00,51.0,30.9,26.93,SE,135,0.0,5.0,46,0.00,,,0.00,Weather View 32 v70,2013-01-22 10:20:00,
2013-01-22 03:30:00,51.0,30.4,26.93,SE,135,0.0,0.0,45,0.00,,,0.00,Weather View 32 v70,2013-01-22 10:30:00,
2013-01-22 03:40:00,50.0,30.5,26.93,SE,135,0.0,0.0,47,0.00,,,0.00,Weather View 32 v70,2013-01-22 10:40:00,
2013-01-22 03:50:00,50.0,30.0,26.93,SE,135,0.0,0.0,46,0.00,,,0.00,Weather View 32 v70,2013-01-22 10:50:00,
2013-01-22 04:00:00,49.0,31.1,26.94,NNE,22,0.0,0.0,50,0.00,,,0.00,Weather View 32 v70,2013-01-22 11:00:00,
2013-01-22 04:09:00,49.0,31.1,26.94,NNE,22,0.0,0.0,50,0.00,,,0.00,Weather View 32 v70,2013-01-22 11:09:00,
2013-01-22 04:20:00,49.0,31.6,26.93,North,360,0.0,0.0,51,0.00,,,0.00,Weather View 32 v70,2013-01-22 11:20:00,
2013-01-22 04:30:00,49.0,31.1,26.93,North,360,0.0,0.0,50,0.00,,,0.00,Weather View 32 v70,2013-01-22 11:30:00,
2013-01-22 04:40:00,49.0,31.1,26.93,NE,45,0.0,0.0,50,0.00,,,0.00,Weather View 32 v70,2013-01-22 11:40:00,
2013-01-22 04:50:00,49.0,31.1,26.93,North,360,1.0,1.0,50,0.00,,,0.00,Weather View 32 v70,2013-01-22 11:50:00,
2013-01-22 05:00:00,49.0,31.1,26.93,NNW,337,0.0,5.0,50,0.00,,,0.00,Weather View 32 v70,2013-01-22 12:00:00,
2013-01-22 05:10:00,49.0,31.1,26.93,North,360,0.0,5.0,50,0.00,,,0.00,Weather View 32 v70,2013-01-22 12:10:00,
2013-01-22 05:20:00,49.0,31.1,26.93,NNE,22,0.0,5.0,50,0.00,,,0.00,Weather View 32 v70,2013-01-22 12:20:00,
2013-01-22 05:30:00,50.0,32.1,26.93,NNW,337,0.0,5.0,50,0.00,,,0.00,Weather View 32 v70,2013-01-22 12:30:00,
2013-01-22 05:40:00,50.0,32.1,26.93,North,360,0.0,5.0,50,0.00,,,0.00,Weather View 32 v70,2013-01-22 12:40:00,
2013-01-22 05:50:00,50.0,32.1,26.93,NNE,22,0.0,5.0,50,0.00,,,0.00,Weather View 32 v70,2013-01-22 12:50:00,
2013-01-22 06:00:00,50.0,31.6,26.94,NNE,22,0.0,4.0,49,0.00,,,0.00,Weather View 32 v70,2013-01-22 13:00:00,
2013-01-22 06:10:00,50.0,31.6,26.94,NNE,22,0.0,4.0,49,0.00,,,0.00,Weather View 32 v70,2013-01-22 13:10:00,
2013-01-22 06:20:00,50.0,31.6,26.94,North,360,0.0,4.0,49,0.00,,,0.00,Weather View 32 v70,2013-01-22 13:20:00,
2013-01-22 06:40:00,49.0,31.6,26.95,NNW,337,0.0,3.0,51,0.00,,,0.00,Weather View 32 v70,2013-01-22 13:40:00,
2013-01-22 06:50:00,49.0,31.1,26.95,NNW,337,0.0,0.0,50,0.00,,,0.00,Weather View 32 v70,2013-01-22 13:50:00,
2013-01-22 07:00:00,49.0,32.1,26.95,NE,45,0.0,0.0,52,0.00,,,0.00,Weather View 32 v70,2013-01-22 14:00:00,
2013-01-22 07:10:00,49.0,32.1,26.95,North,360,0.0,0.0,52,0.00,,,0.00,Weather View 32 v70,2013-01-22 14:10:00,
2013-01-22 07:20:00,49.0,31.1,26.95,North,360,0.0,0.0,50,0.00,,,0.00,Weather View 32 v70,2013-01-22 14:20:00,
2013-01-22 07:30:00,48.0,30.7,26.95,North,360,0.0,0.0,51,0.00,,,0.00,Weather View 32 v70,2013-01-22 14:30:00,
2013-01-22 07:40:00,48.0,31.2,26.95,NE,45,0.0,0.0,52,0.00,,,0.00,Weather View 32 v70,2013-01-22 14:40:00,
2013-01-22 07:50:00,48.0,31.2,26.96,North,360,0.0,0.0,52,0.00,,,0.00,Weather View 32 v70,2013-01-22 14:50:00,
2013-01-22 08:00:00,48.0,31.7,26.96,East,90,0.0,0.0,53,0.00,,,0.00,Weather View 32 v70,2013-01-22 15:00:00,
2013-01-22 08:10:00,47.0,30.7,26.96,East,90,0.0,0.0,53,0.00,,,0.00,Weather View 32 v70,2013-01-22 15:10:00,
2013-01-22 08:20:00,48.0,32.1,26.96,East,90,0.0,0.0,54,0.00,,,0.00,Weather View 32 v70,2013-01-22 15:20:00,
2013-01-22 08:30:00,48.0,32.1,26.95,East,90,0.0,0.0,54,0.00,,,0.00,Weather View 32 v70,2013-01-22 15:30:00,
2013-01-22 08:40:00,50.0,33.5,26.95,NNE,22,0.0,0.0,53,0.00,,,0.00,Weather View 32 v70,2013-01-22 15:40:00,
2013-01-22 08:50:00,53.0,35.8,26.93,NE,45,0.0,0.0,52,0.00,,,0.00,Weather View 32 v70,2013-01-22 15:50:00,
2013-01-22 09:00:00,55.0,34.6,26.93,SSW,202,0.0,0.0,46,0.00,,,0.00,Weather View 32 v70,2013-01-22 16:00:00,
2013-01-22 09:10:00,57.0,34.1,26.93,South,180,0.0,0.0,42,0.00,,,0.00,Weather View 32 v70,2013-01-22 16:10:00,
2013-01-22 09:20:00,59.0,34.0,26.93,SE,135,0.0,0.0,39,0.00,,,0.00,Weather View 32 v70,2013-01-22 16:20:00,
2013-01-22 09:30:00,61.0,35.2,26.93,SSE,157,0.0,0.0,38,0.00,,,0.00,Weather View 32 v70,2013-01-22 16:30:00,
2013-01-22 09:40:00,63.0,36.3,26.92,SSE,157,0.0,0.0,37,0.00,,,0.00,Weather View 32 v70,2013-01-22 16:40:00,
2013-01-22 09:50:00,66.0,37.5,26.91,SSE,157,0.0,0.0,35,0.00,,,0.00,Weather View 32 v70,2013-01-22 16:50:00,
2013-01-22 10:00:00,68.0,36.2,26.91,South,180,0.0,0.0,31,0.00,,,0.00,Weather View 32 v70,2013-01-22 17:00:00,
2013-01-22 10:10:00,69.0,34.5,26.91,South,180,0.0,0.0,28,0.00,,,0.00,Weather View 32 v70,2013-01-22 17:10:00,
2013-01-22 10:20:00,70.0,33.5,26.90,South,180,0.0,0.0,26,0.00,,,0.00,Weather View 32 v70,2013-01-22 17:20:00,
2013-01-22 10:30:00,71.0,33.3,26.90,South,180,3.0,5.0,25,0.00,,,0.00,Weather View 32 v70,2013-01-22 17:30:00,
2013-01-22 10:40:00,72.0,33.1,26.90,SSW,202,0.0,5.0,24,0.00,,,0.00,Weather View 32 v70,2013-01-22 17:40:00,
2013-01-22 10:50:00,74.0,34.8,26.89,ESE,112,0.0,5.0,24,0.00,,,0.00,Weather View 32 v70,2013-01-22 17:50:00,
2013-01-22 11:00:00,74.0,34.8,26.89,SSW,202,3.0,7.0,24,0.00,,,0.00,Weather View 32 v70,2013-01-22 18:00:00,
2013-01-22 11:10:00,75.0,33.5,26.88,South,180,4.0,7.0,22,0.00,,,0.00,Weather View 32 v70,2013-01-22 18:10:00,
2013-01-22 11:20:00,77.0,35.1,26.87,SSE,157,0.0,7.0,22,0.00,,,0.00,Weather View 32 v70,2013-01-22 18:20:00,
2013-01-22 11:30:00,78.0,33.6,26.87,SW,225,0.0,7.0,20,0.00,,,0.00,Weather View 32 v70,2013-01-22 18:30:00,
2013-01-22 11:40:00,79.0,34.4,26.85,South,180,0.0,7.0,20,0.00,,,0.00,Weather View 32 v70,2013-01-22 18:40:00,
2013-01-22 11:50:00,80.0,33.9,26.85,SSE,157,0.0,7.0,19,0.00,,,0.00,Weather View 32 v70,2013-01-22 18:50:00,
2013-01-22 12:00:00,81.0,33.4,26.84,ESE,112,0.0,7.0,18,0.00,,,0.00,Weather View 32 v70,2013-01-22 19:00:00,
2013-01-22 12:10:00,81.0,33.4,26.83,SW,225,0.0,7.0,18,0.00,,,0.00,Weather View 32 v70,2013-01-22 19:10:00,
2013-01-22 12:20:00,82.0,34.2,26.82,South,180,0.0,7.0,18,0.00,,,0.00,Weather View 32 v70,2013-01-22 19:20:00,
2013-01-22 12:30:00,82.0,32.8,26.81,ESE,112,4.0,7.0,17,0.00,,,0.00,Weather View 32 v70,2013-01-22 19:30:00,
2013-01-22 12:40:00,82.0,32.8,26.81,SSE,157,3.0,9.0,17,0.00,,,0.00,Weather View 32 v70,2013-01-22 19:40:00,
2013-01-22 12:50:00,82.0,32.8,26.80,SE,135,0.0,9.0,17,0.00,,,0.00,Weather View 32 v70,2013-01-22 19:50:00,
2013-01-22 13:00:00,82.0,32.8,26.80,South,180,0.0,9.0,17,0.00,,,0.00,Weather View 32 v70,2013-01-22 20:00:00,
2013-01-22 13:10:00,83.0,30.5,26.79,NNW,337,0.0,9.0,15,0.00,,,0.00,Weather View 32 v70,2013-01-22 20:10:00,
2013-01-22 13:15:00,83.0,30.5,26.79,NNW,337,0.0,9.0,15,0.00,,,0.00,Weather View 32 v70,2013-01-22 20:15:00,
2013-01-22 13:20:00,85.0,28.5,26.78,NNE,22,0.0,9.0,13,0.00,,,0.00,Weather View 32 v70,2013-01-22 20:20:00,
2013-01-22 13:30:00,85.0,28.5,26.77,NNE,22,0.0,9.0,13,0.00,,,0.00,Weather View 32 v70,2013-01-22 20:30:00,
2013-01-22 13:40:00,86.0,27.4,26.77,NNE,22,0.0,8.0,12,0.00,,,0.00,Weather View 32 v70,2013-01-22 20:40:00,
2013-01-22 13:50:00,85.0,26.6,26.77,WNW,292,0.0,12.0,12,0.00,,,0.00,Weather View 32 v70,2013-01-22 20:50:00,
2013-01-22 14:00:00,86.0,25.2,26.77,SW,225,0.0,12.0,11,0.00,,,0.00,Weather View 32 v70,2013-01-22 21:00:00,
2013-01-22 14:10:00,86.0,25.2,26.76,SW,225,0.0,12.0,11,0.00,,,0.00,Weather View 32 v70,2013-01-22 21:10:00,
2013-01-22 14:15:00,86.0,25.2,26.76,SW,225,0.0,12.0,11,0.00,,,0.00,Weather View 32 v70,2013-01-22 21:15:00,
2013-01-22 14:30:00,86.0,29.3,26.76,SW,225,4.0,12.0,13,0.00,,,0.00,Weather View 32 v70,2013-01-22 21:30:00,
2013-01-22 14:40:00,84.0,29.6,26.76,SSW,202,8.0,12.0,14,0.00,,,0.00,Weather View 32 v70,2013-01-22 21:40:00,
2013-01-22 14:50:00,82.0,28.0,26.76,SSW,202,17.0,18.0,14,0.00,,,0.00,Weather View 32 v70,2013-01-22 21:50:00,
2013-01-22 15:00:00,83.0,30.5,26.77,SE,135,0.0,18.0,15,0.00,,,0.00,Weather View 32 v70,2013-01-22 22:00:00,
2013-01-22 15:10:00,82.0,29.7,26.77,South,180,6.0,18.0,15,0.00,,,0.00,Weather View 32 v70,2013-01-22 22:10:00,
2013-01-22 15:16:00,82.0,29.7,26.77,South,180,6.0,18.0,15,0.00,,,0.00,Weather View 32 v70,2013-01-22 22:16:00,
2013-01-22 15:30:00,81.0,28.9,26.77,South,180,5.0,18.0,15,0.00,,,0.00,Weather View 32 v70,2013-01-22 22:30:00,
2013-01-22 15:40:00,81.0,28.9,26.77,SSW,202,0.0,18.0,15,0.00,,,0.00,Weather View 32 v70,2013-01-22 22:40:00,
2013-01-22 15:50:00,81.0,28.9,26.77,South,180,0.0,18.0,15,0.00,,,0.00,Weather View 32 v70,2013-01-22 22:50:00,
2013-01-22 16:00:00,81.0,28.9,26.77,SSW,202,5.0,11.0,15,0.00,,,0.00,Weather View 32 v70,2013-01-22 23:00:00,
2013-01-22 16:10:00,81.0,30.5,26.77,SW,225,0.0,10.0,16,0.00,,,0.00,Weather View 32 v70,2013-01-22 23:10:00,
2013-01-22 16:20:00,81.0,30.5,26.77,SSW,202,0.0,10.0,16,0.00,,,0.00,Weather View 32 v70,2013-01-22 23:20:00,
2013-01-22 16:30:00,81.0,27.2,26.78,SSW,202,0.0,10.0,14,0.00,,,0.00,Weather View 32 v70,2013-01-22 23:30:00,
2013-01-22 16:40:00,81.0,28.9,26.77,North,360,0.0,8.0,15,0.00,,,0.00,Weather View 32 v70,2013-01-22 23:40:00,
2013-01-22 16:50:00,80.0,28.1,26.78,West,270,0.0,8.0,15,0.00,,,0.00,Weather View 32 v70,2013-01-22 23:50:00,
2013-01-22 17:00:00,80.0,28.1,26.78,South,180,0.0,8.0,15,0.00,,,0.00,Weather View 32 v70,2013-01-23 00:00:00,
2013-01-22 17:10:00,79.0,27.3,26.78,SE,135,0.0,8.0,15,0.00,,,0.00,Weather View 32 v70,2013-01-23 00:10:00,
2013-01-22 17:17:00,79.0,27.3,26.78,SE,135,0.0,8.0,15,0.00,,,0.00,Weather View 32 v70,2013-01-23 00:17:00,
2013-01-22 17:30:00,78.0,28.1,26.79,SW,225,0.0,8.0,16,0.00,,,0.00,Weather View 32 v70,2013-01-23 00:30:00,
2013-01-22 17:40:00,76.0,26.5,26.80,North,360,0.0,4.0,16,0.00,,,0.00,Weather View 32 v70,2013-01-23 00:40:00,
2013-01-22 17:50:00,75.0,27.1,26.81,North,360,0.0,4.0,17,0.00,,,0.00,Weather View 32 v70,2013-01-23 00:50:00,
2013-01-22 18:00:00,72.0,27.4,26.82,North,360,0.0,10.0,19,0.00,,,0.00,Weather View 32 v70,2013-01-23 01:00:00,
2013-01-22 18:10:00,71.0,30.1,26.83,ENE,67,8.0,10.0,22,0.00,,,0.00,Weather View 32 v70,2013-01-23 01:10:00,
2013-01-22 18:18:00,71.0,30.1,26.83,ENE,67,8.0,10.0,22,0.00,,,0.00,Weather View 32 v70,2013-01-23 01:18:00,
2013-01-22 18:30:00,68.0,28.7,26.84,NNE,22,0.0,10.0,23,0.00,,,0.00,Weather View 32 v70,2013-01-23 01:30:00,
2013-01-22 18:40:00,68.0,29.8,26.85,NNE,22,0.0,10.0,24,0.00,,,0.00,Weather View 32 v70,2013-01-23 01:40:00,
2013-01-22 18:50:00,67.0,29.9,26.85,North,360,0.0,10.0,25,0.00,,,0.00,Weather View 32 v70,2013-01-23 01:50:00,
2013-01-22 19:00:00,65.0,28.2,26.86,NE,45,0.0,8.0,25,0.00,,,0.00,Weather View 32 v70,2013-01-23 02:00:00,
2013-01-22 19:10:00,64.0,28.4,26.86,North,360,6.0,9.0,26,0.00,,,0.00,Weather View 32 v70,2013-01-23 02:10:00,
2013-01-22 19:18:00,64.0,28.4,26.86,North,360,6.0,9.0,26,0.00,,,0.00,Weather View 32 v70,2013-01-23 02:18:00,
2013-01-22 19:30:00,63.0,28.4,26.87,North,360,4.0,9.0,27,0.00,,,0.00,Weather View 32 v70,2013-01-23 02:30:00,
2013-01-22 19:40:00,62.0,28.5,26.88,NNE,22,0.0,9.0,28,0.00,,,0.00,Weather View 32 v70,2013-01-23 02:40:00,
2013-01-22 19:50:00,61.0,27.6,26.88,North,360,4.0,9.0,28,0.00,,,0.00,Weather View 32 v70,2013-01-23 02:50:00,
2013-01-22 20:00:00,61.0,27.6,26.89,North,360,3.0,9.0,28,0.00,,,0.00,Weather View 32 v70,2013-01-23 03:00:00,
2013-01-22 20:10:00,61.0,28.4,26.89,NNE,22,3.0,9.0,29,0.00,,,0.00,Weather View 32 v70,2013-01-23 03:10:00,
2013-01-22 20:19:00,61.0,28.4,26.89,NNE,22,3.0,9.0,29,0.00,,,0.00,Weather View 32 v70,2013-01-23 03:19:00,
2013-01-22 20:30:00,60.0,25.9,26.90,North,360,3.0,11.0,27,0.00,,,0.00,Weather View 32 v70,2013-01-23 03:30:00,
2013-01-22 20:40:00,61.0,25.8,26.89,NE,45,12.0,13.0,26,0.00,,,0.00,Weather View 32 v70,2013-01-23 03:40:00,
2013-01-22 20:50:00,62.0,25.7,26.90,NNE,22,4.0,17.0,25,0.00,,,0.00,Weather View 32 v70,2013-01-23 03:50:00,
2013-01-22 21:00:00,61.0,24.9,26.90,North,360,4.0,17.0,25,0.00,,,0.00,Weather View 32 v70,2013-01-23 04:00:00,
2013-01-22 21:10:00,61.0,23.9,26.90,North,360,0.0,17.0,24,0.00,,,0.00,Weather View 32 v70,2013-01-23 04:10:00,
2013-01-22 21:19:00,61.0,23.9,26.90,North,360,0.0,17.0,24,0.00,,,0.00,Weather View 32 v70,2013-01-23 04:19:00,
2013-01-22 21:30:00,61.0,23.9,26.90,North,360,0.0,17.0,24,0.00,,,0.00,Weather View 32 v70,2013-01-23 04:30:00,
2013-01-22 21:40:00,61.0,23.9,26.90,North,360,0.0,17.0,24,0.00,,,0.00,Weather View 32 v70,2013-01-23 04:40:00,
2013-01-22 21:50:00,61.0,23.9,26.90,North,360,0.0,11.0,24,0.00,,,0.00,Weather View 32 v70,2013-01-23 04:50:00,
2013-01-22 22:10:00,60.0,23.0,26.90,NNW,337,0.0,7.0,24,0.00,,,0.00,Weather View 32 v70,2013-01-23 05:10:00,
2013-01-22 22:20:00,60.0,24.0,26.90,North,360,0.0,7.0,25,0.00,,,0.00,Weather View 32 v70,2013-01-23 05:20:00,
2013-01-22 22:30:00,60.0,24.0,26.91,NNE,22,0.0,7.0,25,0.00,,,0.00,Weather View 32 v70,2013-01-23 05:30:00,
2013-01-22 22:40:00,59.0,22.2,26.92,North,360,0.0,6.0,24,0.00,,,0.00,Weather View 32 v70,2013-01-23 05:40:00,
2013-01-22 22:50:00,59.0,24.1,26.92,South,180,0.0,6.0,26,0.00,,,0.00,Weather View 32 v70,2013-01-23 05:50:00,
2013-01-22 23:00:00,58.0,24.1,26.93,East,90,0.0,4.0,27,0.00,,,0.00,Weather View 32 v70,2013-01-23 06:00:00,
2013-01-22 23:10:00,57.0,24.2,26.93,SE,135,0.0,4.0,28,0.00,,,0.00,Weather View 32 v70,2013-01-23 06:10:00,
2013-01-22 23:20:00,56.0,24.1,26.94,NNE,22,0.0,4.0,29,0.00,,,0.00,Weather View 32 v70,2013-01-23 06:20:00,
2013-01-22 23:30:00,55.0,23.3,26.94,NE,45,0.0,0.0,29,0.00,,,0.00,Weather View 32 v70,2013-01-23 06:30:00,
2013-01-22 23:40:00,56.0,24.9,26.94,NNE,22,0.0,4.0,30,0.00,,,0.00,Weather View 32 v70,2013-01-23 06:40:00,
2013-01-22 23:50:00,56.0,24.1,26.94,NNE,22,0.0,4.0,29,0.00,,,0.00,Weather View 32 v70,2013-01-23 06:50:00,